"WATCHING THE WEATHER TO PROTECT LIFE AND PROPERTY"


THERE ARE CURRENTLY NO WATCHES NOR WARNINGS


Aviation
Satellite (InfraRed)


TNCA 161500Z 10020KT 070V130 9999 BKN020 30/23 Q1012 NOSIG
TNCB 161455Z 09018KT 060V120 9999 BKN017 BKN020 30/24 Q1012
TNCC 161500Z 09013KT 9999 FEW022 30/23 Q1013 NOSIG=